Time;durP1;ratioP1;P1;durP2;ratioP2;P2;SDS_P1;SDS_P2;PMS_P1;PMS_P2;Temp;Humidity;BMP_temperature;BMP_pressure;BME280_temperature;BME280_humidity;BME280_pressure;Samples;Min_cycle;Max_cycle;Signal;HPM_P1;HPM_P2
2021/08/02 00:01:57;;;;;;;2.37;2.10;;;17.50;99.90;;;;;;5052502;28;20705;-65
2021/08/02 00:04:31;;;;;;;2.28;2.05;;;17.50;99.90;;;;;;5052373;28;20212;-65
2021/08/02 00:07:04;;;;;;;3.30;2.40;;;17.60;99.90;;;;;;5052460;28;20576;-65
2021/08/02 00:09:33;;;;;;;2.90;2.60;;;17.60;99.90;;;;;;5052634;28;20209;-66
2021/08/02 00:12:04;;;;;;;5.47;2.38;;;17.60;99.90;;;;;;5052475;28;20225;-62
2021/08/02 00:14:31;;;;;;;2.30;2.05;;;17.60;99.90;;;;;;5052552;28;20212;-63
2021/08/02 00:16:59;;;;;;;3.78;2.42;;;17.70;99.90;;;;;;5052786;28;20610;-66
2021/08/02 00:19:26;;;;;;;4.32;2.63;;;17.70;99.90;;;;;;5052961;28;20212;-63
2021/08/02 00:21:53;;;;;;;2.88;2.35;;;17.60;99.90;;;;;;5052442;28;20225;-64
2021/08/02 00:24:21;;;;;;;2.28;1.98;;;17.60;99.90;;;;;;5052255;28;20674;-66
2021/08/02 00:26:49;;;;;;;3.72;2.33;;;17.60;99.90;;;;;;5052379;28;20209;-63
2021/08/02 00:29:17;;;;;;;4.88;2.58;;;17.60;99.90;;;;;;5052216;28;20209;-63
2021/08/02 00:31:44;;;;;;;7.53;3.35;;;17.60;99.90;;;;;;5052006;28;20226;-63
2021/08/02 00:34:11;;;;;;;3.92;2.55;;;17.60;99.90;;;;;;5051940;28;20213;-64
2021/08/02 00:36:40;;;;;;;3.13;2.28;;;17.60;99.90;;;;;;5051581;28;20232;-64
2021/08/02 00:39:11;;;;;;;4.65;2.72;;;17.60;99.90;;;;;;5051797;28;20267;-65
2021/08/02 00:42:38;;;;;;;4.93;2.42;;;17.60;99.90;;;;;;5051552;28;20274;-63
2021/08/02 00:45:14;;;;;;;3.65;2.20;;;17.60;99.90;;;;;;5051639;28;20210;-64
2021/08/02 00:47:46;;;;;;;7.30;2.20;;;17.60;99.90;;;;;;5051772;28;20236;-65
2021/08/02 00:50:16;;;;;;;2.83;2.10;;;17.60;99.90;;;;;;5051507;28;20298;-63
2021/08/02 00:52:49;;;;;;;2.88;2.13;;;17.60;99.90;;;;;;5051707;28;20213;-65
2021/08/02 00:55:16;;;;;;;4.15;2.13;;;17.60;99.90;;;;;;5051523;28;20205;-63
2021/08/02 00:57:44;;;;;;;2.63;2.03;;;17.50;99.90;;;;;;5051498;28;20209;-64
2021/08/02 01:00:15;;;;;;;5.88;2.22;;;17.40;99.90;;;;;;5051678;28;20226;-65
2021/08/02 01:02:44;;;;;;;4.45;2.25;;;17.30;99.90;;;;;;5051602;28;20688;-63
2021/08/02 01:05:13;;;;;;;5.07;2.20;;;17.20;99.90;;;;;;5051075;28;20213;-64
2021/08/02 01:07:45;;;;;;;2.57;2.37;;;17.10;99.90;;;;;;5051530;28;20205;-64
2021/08/02 01:10:13;;;;;;;3.65;2.47;;;17.10;99.90;;;;;;5051090;28;20669;-64
2021/08/02 01:12:46;;;;;;;3.80;2.30;;;16.90;99.90;;;;;;5051416;28;20212;-63
2021/08/02 01:15:14;;;;;;;3.58;2.20;;;16.80;99.90;;;;;;5051137;28;20220;-63
2021/08/02 01:17:43;;;;;;;2.08;1.85;;;16.70;99.90;;;;;;5051265;28;20214;-65
2021/08/02 01:20:12;;;;;;;3.00;2.25;;;16.70;99.90;;;;;;5051257;28;20259;-64
2021/08/02 01:22:42;;;;;;;6.37;2.17;;;16.80;99.90;;;;;;5051352;28;20205;-63
2021/08/02 01:25:57;;;;;;;3.03;2.20;;;16.80;99.90;;;;;;5050882;28;20209;-64
2021/08/02 01:29:00;;;;;;;3.17;2.30;;;16.70;99.90;;;;;;5050804;28;20581;-65
2021/08/02 01:31:27;;;;;;;4.10;2.37;;;16.70;99.90;;;;;;5051017;28;20311;-64
2021/08/02 01:33:54;;;;;;;4.73;2.20;;;16.80;99.90;;;;;;5050677;28;20216;-65
2021/08/02 01:36:21;;;;;;;2.20;2.00;;;16.90;99.90;;;;;;5050802;28;20232;-64
2021/08/02 01:38:50;;;;;;;4.33;2.20;;;16.90;99.90;;;;;;5050436;28;20708;-65
2021/08/02 01:41:17;;;;;;;3.67;2.10;;;16.90;99.90;;;;;;5050678;28;20244;-64
2021/08/02 01:43:44;;;;;;;3.25;2.20;;;17.00;99.90;;;;;;5050548;28;20573;-64
2021/08/02 01:46:19;;;;;;;7.13;2.30;;;17.00;99.90;;;;;;5050813;28;20205;-64
2021/08/02 01:48:54;;;;;;;2.60;2.00;;;17.00;99.90;;;;;;5050739;28;20457;-64
2021/08/02 01:51:25;;;;;;;3.03;1.90;;;17.10;99.90;;;;;;5050842;28;20249;-64
2021/08/02 01:54:06;;;;;;;3.60;2.10;;;17.10;99.90;;;;;;5050542;28;20689;-64
2021/08/02 01:56:38;;;;;;;5.70;2.10;;;17.20;99.90;;;;;;5050540;28;20216;-64
2021/08/02 01:59:09;;;;;;;4.88;2.03;;;17.20;99.90;;;;;;5050478;28;20220;-63
2021/08/02 02:01:41;;;;;;;5.72;2.10;;;17.20;99.90;;;;;;5050406;28;20319;-65
2021/08/02 02:04:08;;;;;;;3.80;2.10;;;17.20;99.90;;;;;;5050435;28;20201;-65
2021/08/02 02:06:41;;;;;;;5.97;2.30;;;17.30;99.90;;;;;;5050374;28;20205;-63
2021/08/02 02:09:11;;;;;;;4.43;1.83;;;17.30;99.90;;;;;;5050087;28;20210;-64
2021/08/02 02:11:42;;;;;;;4.83;2.17;;;17.20;99.90;;;;;;5049976;28;20259;-65
2021/08/02 02:14:10;;;;;;;2.60;2.20;;;17.30;99.90;;;;;;5050472;28;20205;-64
2021/08/02 02:16:39;;;;;;;2.85;1.98;;;17.30;99.90;;;;;;5050556;28;20209;-64
2021/08/02 02:19:08;;;;;;;3.35;1.80;;;17.30;99.90;;;;;;5050466;28;20257;-65
2021/08/02 02:21:36;;;;;;;6.20;2.20;;;17.20;99.90;;;;;;5050553;28;20694;-65
2021/08/02 02:24:03;;;;;;;4.63;2.15;;;17.10;99.90;;;;;;5050816;28;20637;-64
2021/08/02 02:26:33;;;;;;;3.70;2.00;;;17.00;99.90;;;;;;5050669;28;20288;-64
2021/08/02 02:29:02;;;;;;;3.25;2.22;;;16.90;99.90;;;;;;5050348;28;20217;-64
2021/08/02 02:31:30;;;;;;;4.97;1.90;;;16.90;99.90;;;;;;5050578;28;20656;-64
2021/08/02 02:34:00;;;;;;;4.82;2.47;;;16.80;99.90;;;;;;5050656;28;20229;-66
2021/08/02 02:36:28;;;;;;;5.38;2.65;;;16.80;99.90;;;;;;5050253;28;20209;-64
2021/08/02 02:38:55;;;;;;;4.87;2.20;;;16.70;99.90;;;;;;5050312;28;20205;-64
2021/08/02 02:41:23;;;;;;;4.83;2.60;;;16.70;99.90;;;;;;5050071;28;20233;-64
2021/08/02 02:43:52;;;;;;;5.80;2.10;;;16.70;99.90;;;;;;5050208;28;20678;-64
2021/08/02 02:46:20;;;;;;;5.27;2.07;;;16.70;99.90;;;;;;5051104;28;20213;-64
2021/08/02 02:48:48;;;;;;;2.47;2.07;;;16.70;99.90;;;;;;5050664;28;20212;-64
2021/08/02 02:51:16;;;;;;;3.67;2.27;;;16.60;99.90;;;;;;5050108;28;20229;-64
2021/08/02 02:53:44;;;;;;;7.90;2.27;;;16.60;99.90;;;;;;5050229;28;20212;-63
2021/08/02 02:56:13;;;;;;;3.27;2.47;;;16.50;99.90;;;;;;5050326;28;20631;-63
2021/08/02 02:58:41;;;;;;;6.00;2.73;;;16.40;99.90;;;;;;5050077;28;20217;-64
2021/08/02 03:01:13;;;;;;;3.30;1.83;;;16.30;99.90;;;;;;5052590;28;20226;-64
2021/08/02 03:03:45;;;;;;;5.60;2.30;;;16.30;99.90;;;;;;5053447;28;20205;-64
2021/08/02 03:06:13;;;;;;;2.57;1.90;;;16.30;99.90;;;;;;5053743;28;20212;-64
2021/08/02 03:08:44;;;;;;;3.67;2.17;;;16.40;99.90;;;;;;5053680;28;20217;-64
2021/08/02 03:11:13;;;;;;;4.50;2.60;;;16.30;99.90;;;;;;5053613;28;20225;-63
2021/08/02 03:13:40;;;;;;;2.73;2.10;;;16.40;99.90;;;;;;5053533;28;20213;-64
2021/08/02 03:16:08;;;;;;;5.60;2.10;;;16.30;99.90;;;;;;5053441;28;20216;-64
2021/08/02 03:18:35;;;;;;;8.60;2.37;;;16.40;99.90;;;;;;5053444;28;20209;-64
2021/08/02 03:21:03;;;;;;;3.20;2.20;;;16.40;99.90;;;;;;5053331;28;20230;-63
2021/08/02 03:23:35;;;;;;;5.87;2.60;;;16.40;99.90;;;;;;5053217;28;20210;-63
2021/08/02 03:26:09;;;;;;;4.27;2.50;;;16.40;99.90;;;;;;5053538;28;20587;-64
2021/08/02 03:28:43;;;;;;;8.43;4.30;;;16.50;99.90;;;;;;5053178;28;20209;-64
2021/08/02 03:31:17;;;;;;;3.90;2.40;;;16.60;99.90;;;;;;5053215;28;20225;-65
2021/08/02 03:33:46;;;;;;;7.63;2.70;;;16.70;99.90;;;;;;5053034;28;20719;-64
2021/08/02 03:36:15;;;;;;;6.97;2.60;;;16.70;99.90;;;;;;5053145;28;20739;-63
2021/08/02 03:38:44;;;;;;;5.20;2.40;;;16.70;99.90;;;;;;5053027;28;20256;-64
2021/08/02 03:41:12;;;;;;;7.50;2.57;;;16.60;99.90;;;;;;5074169;22;20290;-63
2021/08/02 03:43:40;;;;;;;5.90;3.67;;;16.60;99.90;;;;;;5073228;28;20244;-63
2021/08/02 03:46:09;;;;;;;3.73;2.40;;;16.50;99.90;;;;;;5073232;28;20236;-63
2021/08/02 03:48:38;;;;;;;3.40;2.40;;;16.40;99.90;;;;;;5073033;28;20254;-63
2021/08/02 03:51:05;;;;;;;6.03;2.80;;;16.30;99.90;;;;;;5073077;28;20225;-63
2021/08/02 03:53:39;;;;;;;4.87;2.60;;;16.20;99.90;;;;;;5072637;28;20683;-64
2021/08/02 03:56:07;;;;;;;7.87;2.53;;;16.20;99.90;;;;;;5072643;28;20299;-63
2021/08/02 03:58:34;;;;;;;4.60;3.00;;;16.10;99.90;;;;;;5072963;28;20296;-63
2021/08/02 04:01:01;;;;;;;3.67;2.27;;;16.00;99.90;;;;;;5072670;28;20225;-63
2021/08/02 04:03:28;;;;;;;5.67;2.67;;;15.90;99.90;;;;;;5072607;28;20208;-63
2021/08/02 04:05:58;;;;;;;3.50;2.60;;;15.90;99.90;;;;;;5072734;28;20259;-61
2021/08/02 04:08:24;;;;;;;4.37;2.60;;;15.90;99.90;;;;;;5072520;28;20632;-62
2021/08/02 04:10:51;;;;;;;4.47;2.73;;;15.80;99.90;;;;;;5071802;28;20224;-62
2021/08/02 04:13:19;;;;;;;6.10;3.50;;;15.80;99.90;;;;;;5071960;28;20258;-63
2021/08/02 04:15:46;;;;;;;7.43;4.97;;;15.90;99.90;;;;;;5072220;28;20201;-63
2021/08/02 04:18:12;;;;;;;7.20;3.53;;;16.00;99.90;;;;;;5072135;28;20561;-62
2021/08/02 04:20:39;;;;;;;9.43;3.90;;;16.10;99.90;;;;;;5072193;28;20229;-63
2021/08/02 04:23:07;;;;;;;4.17;2.83;;;16.20;99.90;;;;;;5072276;28;20247;-62
2021/08/02 04:25:34;;;;;;;4.27;2.53;;;16.20;99.90;;;;;;5072158;28;20209;-62
2021/08/02 04:28:00;;;;;;;10.07;2.60;;;16.20;99.90;;;;;;5072286;28;20208;-63
2021/08/02 04:30:27;;;;;;;5.80;2.50;;;16.30;99.90;;;;;;5072111;28;20211;-62
2021/08/02 04:32:54;;;;;;;3.40;2.23;;;16.30;99.90;;;;;;5072019;28;20209;-62
2021/08/02 04:35:20;;;;;;;5.63;2.75;;;16.40;99.90;;;;;;5072300;28;20212;-62
2021/08/02 04:37:47;;;;;;;2.97;2.30;;;16.50;99.90;;;;;;5071851;28;20209;-62
2021/08/02 04:40:15;;;;;;;3.80;2.00;;;16.40;99.90;;;;;;5071769;28;20664;-64
2021/08/02 04:42:42;;;;;;;6.60;2.53;;;16.40;99.90;;;;;;5072075;28;20636;-62
2021/08/02 04:45:11;;;;;;;3.33;2.40;;;16.50;99.90;;;;;;5071717;28;20213;-62
2021/08/02 04:47:38;;;;;;;4.40;2.50;;;16.50;99.90;;;;;;5071690;28;20216;-62
2021/08/02 04:50:05;;;;;;;5.35;2.50;;;16.60;99.90;;;;;;5071670;28;20204;-62
2021/08/02 04:52:32;;;;;;;3.40;2.50;;;16.80;99.90;;;;;;5071613;28;20708;-62
2021/08/02 04:54:59;;;;;;;3.63;2.33;;;16.90;99.90;;;;;;5071648;28;20208;-62
2021/08/02 04:57:27;;;;;;;4.00;2.47;;;17.00;99.90;;;;;;5071531;28;20228;-61
2021/08/02 04:59:53;;;;;;;3.27;2.37;;;17.10;99.90;;;;;;5071546;28;20205;-63
2021/08/02 05:02:20;;;;;;;4.35;2.35;;;17.20;99.90;;;;;;5071304;28;20240;-62
2021/08/02 05:04:47;;;;;;;5.40;2.47;;;17.20;99.90;;;;;;5071261;28;20266;-62
2021/08/02 05:07:13;;;;;;;7.80;2.13;;;17.30;99.90;;;;;;5071368;28;20204;-62
2021/08/02 05:09:40;;;;;;;2.70;2.10;;;17.40;99.90;;;;;;5071361;28;20608;-62
2021/08/02 05:12:07;;;;;;;3.53;2.30;;;17.50;99.90;;;;;;5071049;28;20712;-62
2021/08/02 05:14:35;;;;;;;5.40;2.10;;;17.60;99.90;;;;;;5071135;28;20205;-62
2021/08/02 05:17:02;;;;;;;8.07;2.10;;;17.60;99.90;;;;;;5071144;28;20627;-62
2021/08/02 05:19:29;;;;;;;7.60;2.35;;;17.60;99.90;;;;;;5071390;28;20282;-62
2021/08/02 05:21:56;;;;;;;5.47;2.60;;;17.70;99.90;;;;;;5071593;28;20225;-62
2021/08/02 05:24:22;;;;;;;5.43;2.20;;;17.70;99.90;;;;;;5070797;28;20729;-63
2021/08/02 05:26:49;;;;;;;5.80;2.72;;;17.70;99.90;;;;;;5071135;28;20200;-62
2021/08/02 05:29:15;;;;;;;3.42;2.22;;;17.80;99.90;;;;;;5071387;28;20205;-62
2021/08/02 05:31:44;;;;;;;3.80;2.23;;;17.90;99.90;;;;;;5070838;28;20229;-62
2021/08/02 05:34:11;;;;;;;6.07;2.20;;;17.90;99.90;;;;;;5071079;28;20258;-62
2021/08/02 05:36:38;;;;;;;3.28;1.92;;;18.00;99.90;;;;;;5071078;28;20207;-62
2021/08/02 05:39:05;;;;;;;7.10;2.30;;;18.10;99.90;;;;;;5071210;28;20584;-62
2021/08/02 05:41:32;;;;;;;5.30;2.25;;;18.10;99.90;;;;;;5070616;28;20228;-62
2021/08/02 05:43:58;;;;;;;3.33;2.35;;;18.20;99.90;;;;;;5071336;28;20668;-62
2021/08/02 05:46:25;;;;;;;4.57;2.15;;;18.20;99.90;;;;;;5071053;28;20208;-62
2021/08/02 05:48:53;;;;;;;3.72;1.90;;;18.20;99.90;;;;;;5070786;28;20837;-63
2021/08/02 05:51:20;;;;;;;4.32;2.05;;;18.20;99.90;;;;;;5070991;28;20225;-62
2021/08/02 05:53:46;;;;;;;3.78;2.15;;;18.30;99.90;;;;;;5070625;28;20672;-62
2021/08/02 05:56:13;;;;;;;4.10;1.90;;;18.30;99.90;;;;;;5070985;28;20215;-62
2021/08/02 05:58:40;;;;;;;2.53;2.00;;;18.40;99.90;;;;;;5070414;28;20708;-62
2021/08/02 06:01:06;;;;;;;3.25;1.70;;;18.40;99.90;;;;;;5070771;28;20224;-62
2021/08/02 06:03:33;;;;;;;6.05;2.13;;;18.40;99.90;;;;;;5070503;28;20236;-62
2021/08/02 06:06:02;;;;;;;3.63;1.90;;;18.50;99.90;;;;;;5070500;28;20228;-62
2021/08/02 06:08:29;;;;;;;4.50;1.70;;;18.60;99.90;;;;;;5070635;28;20205;-62
2021/08/02 06:10:56;;;;;;;2.38;1.77;;;18.70;99.90;;;;;;5070626;28;20236;-63
2021/08/02 06:13:22;;;;;;;3.40;2.00;;;18.60;99.90;;;;;;5070457;28;20251;-62
2021/08/02 06:15:49;;;;;;;2.40;2.00;;;18.70;99.90;;;;;;5070682;28;20295;-62
2021/08/02 06:18:16;;;;;;;4.50;1.60;;;18.80;99.90;;;;;;5070253;28;20209;-62
2021/08/02 06:20:42;;;;;;;3.65;1.95;;;18.90;99.90;;;;;;5070288;28;20235;-62
2021/08/02 06:23:10;;;;;;;4.05;2.38;;;18.90;99.90;;;;;;5070303;28;20235;-62
2021/08/02 06:25:37;;;;;;;4.80;1.88;;;19.00;99.90;;;;;;5070079;28;20681;-62
2021/08/02 06:28:04;;;;;;;1.75;1.60;;;19.10;99.90;;;;;;5070275;28;20205;-62
2021/08/02 06:30:31;;;;;;;2.90;1.90;;;19.10;99.90;;;;;;5070372;28;20209;-63
2021/08/02 06:32:57;;;;;;;2.80;1.95;;;19.10;99.90;;;;;;5070664;28;20282;-63
2021/08/02 06:35:26;;;;;;;4.03;1.88;;;19.10;99.90;;;;;;5071738;28;20208;-63
2021/08/02 06:37:52;;;;;;;8.10;1.85;;;19.20;99.90;;;;;;5074087;28;20583;-65
2021/08/02 06:40:21;;;;;;;3.33;2.03;;;19.30;99.90;;;;;;5074220;28;20688;-63
2021/08/02 06:42:47;;;;;;;5.22;1.90;;;19.40;99.90;;;;;;5078231;28;20228;-63
2021/08/02 06:45:14;;;;;;;2.88;1.70;;;19.40;99.90;;;;;;5077433;28;20200;-63
2021/08/02 06:47:41;;;;;;;5.20;1.70;;;19.50;99.90;;;;;;5074051;28;20707;-63
2021/08/02 06:50:09;;;;;;;2.78;1.80;;;19.60;99.90;;;;;;5073961;28;20200;-61
2021/08/02 06:52:36;;;;;;;4.35;2.00;;;19.70;99.90;;;;;;5074087;28;20224;-64
2021/08/02 06:55:03;;;;;;;3.20;1.92;;;19.90;99.90;;;;;;5073750;28;20209;-62
2021/08/02 06:57:31;;;;;;;2.75;1.58;;;20.00;99.90;;;;;;5073923;28;20213;-63
2021/08/02 06:59:58;;;;;;;4.72;1.85;;;20.20;99.90;;;;;;5073876;28;20216;-62
2021/08/02 07:02:25;;;;;;;4.68;1.90;;;20.30;99.90;;;;;;5073712;28;20228;-62
2021/08/02 07:04:51;;;;;;;6.82;2.05;;;20.50;99.90;;;;;;5073644;28;20201;-62
2021/08/02 07:07:18;;;;;;;5.32;1.77;;;20.50;99.90;;;;;;5073629;28;20251;-62
2021/08/02 07:09:45;;;;;;;2.95;1.63;;;20.60;99.90;;;;;;5073430;28;20209;-62
2021/08/02 07:12:11;;;;;;;3.47;1.65;;;20.60;99.90;;;;;;5073599;28;20224;-62
2021/08/02 07:14:39;;;;;;;5.65;1.77;;;20.80;99.90;;;;;;5074155;28;20205;-63
2021/08/02 07:17:06;;;;;;;4.45;1.83;;;20.90;99.90;;;;;;5074127;28;20208;-62
2021/08/02 07:19:33;;;;;;;3.05;1.60;;;21.00;99.90;;;;;;5073971;28;20212;-63
2021/08/02 07:21:59;;;;;;;5.65;1.90;;;21.10;99.90;;;;;;5073182;28;20233;-62
2021/08/02 07:24:26;;;;;;;7.50;4.97;;;21.30;99.90;;;;;;5073751;28;20205;-63
2021/08/02 07:26:53;;;;;;;4.53;2.47;;;21.50;99.90;;;;;;5074378;28;20258;-63
2021/08/02 07:29:20;;;;;;;4.13;1.80;;;21.60;99.90;;;;;;5073556;28;20204;-63
2021/08/02 07:31:48;;;;;;;3.45;1.98;;;21.80;99.90;;;;;;5073706;28;20232;-62
2021/08/02 07:34:15;;;;;;;5.32;1.75;;;21.90;99.90;;;;;;5073029;28;20208;-62
2021/08/02 07:36:42;;;;;;;2.78;1.60;;;22.10;99.90;;;;;;5073321;28;20699;-62
2021/08/02 07:39:08;;;;;;;2.85;1.58;;;22.30;99.90;;;;;;5072837;28;20213;-61
2021/08/02 07:41:35;;;;;;;6.55;1.90;;;22.50;99.90;;;;;;5073034;28;20616;-58
2021/08/02 07:44:02;;;;;;;4.90;3.08;;;22.70;99.90;;;;;;5072895;28;20614;-59
2021/08/02 07:46:28;;;;;;;3.63;1.40;;;22.90;99.90;;;;;;5072933;28;20211;-59
2021/08/02 07:48:56;;;;;;;2.72;1.60;;;23.10;99.90;;;;;;5072850;28;20205;-58
2021/08/02 07:51:23;;;;;;;5.25;1.85;;;23.20;99.90;;;;;;5072707;28;20362;-59
2021/08/02 07:53:50;;;;;;;2.63;1.90;;;23.30;99.90;;;;;;5072926;28;20255;-58
2021/08/02 07:56:17;;;;;;;2.72;1.55;;;23.30;99.90;;;;;;5073048;28;20204;-58
2021/08/02 07:58:43;;;;;;;5.22;1.52;;;23.60;99.90;;;;;;5072724;28;20259;-59
2021/08/02 08:01:10;;;;;;;1.42;1.33;;;23.80;99.90;;;;;;5072701;28;20676;-59
2021/08/02 08:03:37;;;;;;;2.58;1.33;;;24.20;99.90;;;;;;5072139;28;20221;-59
2021/08/02 08:06:06;;;;;;;5.15;1.65;;;24.50;99.90;;;;;;5072314;28;20205;-60
2021/08/02 08:08:33;;;;;;;3.03;1.55;;;24.70;99.90;;;;;;5072289;28;20205;-60
2021/08/02 08:10:59;;;;;;;4.35;1.50;;;24.90;99.90;;;;;;5072583;28;20225;-61
2021/08/02 08:13:26;;;;;;;5.20;1.70;;;25.10;99.90;;;;;;5072388;28;20660;-62
2021/08/02 08:15:52;;;;;;;5.93;1.70;;;25.30;99.90;;;;;;5072707;28;20757;-62
2021/08/02 08:18:19;;;;;;;2.38;1.50;;;25.70;99.90;;;;;;5072053;28;20209;-61
2021/08/02 08:20:46;;;;;;;2.70;1.55;;;26.20;99.90;;;;;;5072535;28;20232;-60
2021/08/02 08:23:14;;;;;;;1.95;1.33;;;26.50;99.90;;;;;;5072193;28;20229;-59
2021/08/02 08:25:42;;;;;;;2.67;1.60;;;26.80;99.90;;;;;;5072143;28;20212;-59
2021/08/02 08:28:10;;;;;;;2.75;1.20;;;27.10;99.90;;;;;;5072336;28;20212;-60
2021/08/02 08:30:37;;;;;;;3.85;1.77;;;27.30;99.90;;;;;;5072186;28;20595;-60
2021/08/02 08:33:03;;;;;;;3.40;1.17;;;27.50;99.90;;;;;;5071819;28;20204;-60
2021/08/02 08:35:30;;;;;;;1.80;1.35;;;27.60;98.90;;;;;;5071848;28;20205;-59
2021/08/02 08:37:57;;;;;;;3.15;1.50;;;27.60;98.70;;;;;;5071733;28;20487;-60
2021/08/02 08:40:25;;;;;;;4.25;1.52;;;27.70;98.00;;;;;;5071438;28;20201;-59
2021/08/02 08:42:52;;;;;;;2.25;1.20;;;27.90;97.30;;;;;;5071700;28;20233;-59
2021/08/02 08:45:19;;;;;;;4.72;1.60;;;28.00;96.60;;;;;;5071550;28;20228;-59
2021/08/02 08:47:46;;;;;;;3.15;1.25;;;28.10;96.70;;;;;;5071860;28;20262;-60
2021/08/02 08:50:13;;;;;;;2.92;1.92;;;28.20;96.10;;;;;;5072004;28;20212;-60
2021/08/02 08:52:39;;;;;;;3.22;1.55;;;28.40;95.60;;;;;;5071700;28;20608;-59
2021/08/02 08:55:08;;;;;;;5.07;1.45;;;28.50;95.20;;;;;;5071427;28;20704;-60
2021/08/02 08:57:36;;;;;;;4.93;1.88;;;28.50;94.40;;;;;;5070960;28;20205;-60
2021/08/02 09:00:07;;;;;;;7.57;1.63;;;28.50;94.60;;;;;;5071634;28;20209;-60
2021/08/02 09:02:34;;;;;;;3.88;1.60;;;28.50;93.50;;;;;;5071577;28;20240;-60
2021/08/02 09:05:03;;;;;;;2.10;1.40;;;28.50;94.10;;;;;;5071508;28;20201;-58
2021/08/02 09:07:34;;;;;;;3.85;1.67;;;28.70;93.70;;;;;;5071504;28;20250;-60
2021/08/02 09:10:01;;;;;;;2.95;1.25;;;28.90;92.50;;;;;;5071293;28;20212;-60
2021/08/02 09:12:28;;;;;;;2.30;1.42;;;29.20;92.10;;;;;;5070967;28;20229;-60
2021/08/02 09:14:57;;;;;;;4.35;1.60;;;29.30;92.10;;;;;;5071433;28;20564;-60
2021/08/02 09:17:28;;;;;;;3.80;1.70;;;29.30;91.50;;;;;;5071249;28;20270;-59
2021/08/02 09:19:55;;;;;;;3.85;2.05;;;28.90;91.40;;;;;;5071371;28;20228;-60
2021/08/02 09:22:30;;;;;;;4.38;2.28;;;28.60;91.60;;;;;;5070990;28;20232;-60
2021/08/02 09:25:09;;;;;;;2.92;1.73;;;28.50;91.60;;;;;;5070934;28;20212;-59
2021/08/02 09:27:36;;;;;;;4.32;1.40;;;28.50;92.10;;;;;;5071222;28;20208;-59
2021/08/02 09:30:24;;;;;;;4.55;1.60;;;28.60;91.60;;;;;;5071325;28;20220;-58
2021/08/02 09:32:55;;;;;;;3.75;1.70;;;28.50;91.90;;;;;;5071157;28;20224;-59
2021/08/02 09:35:33;;;;;;;1.80;1.25;;;28.30;91.80;;;;;;5070963;28;20204;-60
2021/08/02 09:38:02;;;;;;;2.40;1.50;;;28.20;91.40;;;;;;5071118;28;20204;-60
2021/08/02 09:40:37;;;;;;;1.77;1.30;;;28.20;91.10;;;;;;5070488;28;20200;-66
2021/08/02 09:43:04;;;;;;;3.80;1.45;;;28.20;91.10;;;;;;5050718;28;20325;-60
2021/08/02 09:45:42;;;;;;;2.25;1.30;;;27.60;91.20;;;;;;5050617;28;20218;-60
2021/08/02 09:48:08;;;;;;;3.45;1.63;;;26.80;92.90;;;;;;5050770;28;20279;-60
2021/08/02 09:50:35;;;;;;;3.05;1.65;;;26.40;93.60;;;;;;5050678;28;20222;-62
2021/08/02 09:53:02;;;;;;;3.28;1.63;;;26.00;93.90;;;;;;5050655;28;20212;-63
2021/08/02 09:55:29;;;;;;;2.03;1.30;;;25.60;95.20;;;;;;5050563;28;20582;-62
2021/08/02 09:57:56;;;;;;;4.03;1.83;;;25.60;94.90;;;;;;5050337;28;20206;-62
2021/08/02 10:00:24;;;;;;;2.42;1.33;;;25.40;95.00;;;;;;5050533;28;20217;-62
2021/08/02 10:02:52;;;;;;;3.53;1.42;;;25.40;95.30;;;;;;5050502;28;20208;-63
2021/08/02 10:05:20;;;;;;;4.28;1.60;;;25.40;95.60;;;;;;5050661;28;20240;-63
2021/08/02 10:07:48;;;;;;;3.45;1.65;;;25.70;95.60;;;;;;5050460;28;20209;-63
2021/08/02 10:10:16;;;;;;;3.78;1.38;;;26.10;95.40;;;;;;5051491;28;20213;-62
2021/08/02 10:12:45;;;;;;;5.65;1.58;;;26.20;94.90;;;;;;5054890;28;20232;-63
2021/08/02 10:15:17;;;;;;;4.00;1.70;;;26.20;94.70;;;;;;5053145;28;20248;-62
2021/08/02 10:17:49;;;;;;;2.10;1.40;;;26.50;93.60;;;;;;5054115;28;20233;-62
2021/08/02 10:20:35;;;;;;;4.10;1.52;;;26.60;93.00;;;;;;5054281;28;20681;-61
2021/08/02 10:23:04;;;;;;;3.50;1.40;;;26.80;92.90;;;;;;5054356;28;20217;-62
2021/08/02 10:25:36;;;;;;;2.55;1.30;;;26.90;92.30;;;;;;5054073;28;20581;-64
2021/08/02 10:28:07;;;;;;;1.50;1.17;;;27.00;91.70;;;;;;5054175;28;20217;-58
2021/08/02 10:30:34;;;;;;;2.13;1.20;;;26.90;92.70;;;;;;5054811;28;20287;-58
2021/08/02 10:33:00;;;;;;;3.25;1.08;;;26.20;93.10;;;;;;5054337;28;20292;-58
2021/08/02 10:35:32;;;;;;;1.58;1.05;;;25.30;93.90;;;;;;5053758;28;20601;-60
2021/08/02 10:38:06;;;;;;;2.35;1.00;;;24.50;95.00;;;;;;5053987;28;20704;-59
2021/08/02 10:40:47;;;;;;;3.60;1.45;;;23.60;99.90;;;;;;5054223;28;20249;-60
2021/08/02 10:43:25;;;;;;;12.20;2.88;;;22.60;99.90;;;;;;5054181;28;20222;-60
2021/08/02 10:45:52;;;;;;;4.80;2.28;;;21.30;99.90;;;;;;5054194;28;20263;-59
2021/08/02 10:48:26;;;;;;;5.93;2.60;;;19.80;99.90;;;;;;5053804;28;20232;-59
2021/08/02 10:50:53;;;;;;;5.22;2.75;;;19.20;99.90;;;;;;5054160;28;20647;-60
2021/08/02 10:53:22;;;;;;;8.85;2.45;;;19.00;99.90;;;;;;5054253;28;20205;-59
2021/08/02 10:55:50;;;;;;;4.78;3.17;;;18.80;99.90;;;;;;5054580;28;20216;-59
2021/08/02 10:58:32;;;;;;;5.13;2.72;;;18.80;99.90;;;;;;5053870;28;20704;-60
2021/08/02 11:01:00;;;;;;;3.05;2.00;;;18.50;99.90;;;;;;5054295;28;20229;-60
2021/08/02 11:03:32;;;;;;;5.22;2.10;;;18.20;99.90;;;;;;5054308;28;20253;-60
2021/08/02 11:06:05;;;;;;;4.63;2.22;;;17.90;99.90;;;;;;5054425;28;20727;-60
2021/08/02 11:08:35;;;;;;;3.47;2.08;;;17.70;99.90;;;;;;5053959;28;20259;-60
2021/08/02 11:11:04;;;;;;;3.03;2.17;;;17.60;99.90;;;;;;5053834;28;20233;-60
2021/08/02 11:13:31;;;;;;;3.17;1.67;;;17.60;99.90;;;;;;5053608;28;20240;-60
2021/08/02 11:15:58;;;;;;;4.95;2.10;;;17.80;99.90;;;;;;5053798;28;20213;-60
2021/08/02 11:18:26;;;;;;;3.67;1.98;;;17.90;99.90;;;;;;5053641;28;20220;-60
2021/08/02 11:20:53;;;;;;;6.47;2.20;;;18.30;99.90;;;;;;5052868;28;20355;-59
2021/08/02 11:23:29;;;;;;;2.15;1.42;;;18.30;99.90;;;;;;5053277;28;20594;-59
2021/08/02 11:26:05;;;;;;;3.92;1.70;;;18.50;99.90;;;;;;5053513;28;20209;-60
2021/08/02 11:28:38;;;;;;;1.98;1.40;;;18.30;99.90;;;;;;5053367;28;20254;-59
2021/08/02 11:31:05;;;;;;;4.38;2.00;;;18.30;99.90;;;;;;5053044;28;20971;-59
2021/08/02 11:33:32;;;;;;;2.45;1.60;;;18.30;99.90;;;;;;5053202;28;20205;-59
2021/08/02 11:35:59;;;;;;;2.92;1.65;;;18.30;99.90;;;;;;5053312;28;20564;-59
2021/08/02 11:38:35;;;;;;;1.60;1.45;;;18.40;99.90;;;;;;5052891;28;20732;-59
2021/08/02 11:41:03;;;;;;;2.80;1.73;;;18.40;99.90;;;;;;5052803;28;20752;-59
2021/08/02 11:43:30;;;;;;;4.15;1.90;;;18.50;99.90;;;;;;5052600;28;20221;-58
2021/08/02 11:45:59;;;;;;;2.17;1.70;;;18.60;99.90;;;;;;5053420;28;20209;-59
2021/08/02 11:48:25;;;;;;;4.70;1.98;;;18.80;99.90;;;;;;5052784;28;20205;-60
2021/08/02 11:50:52;;;;;;;6.72;1.80;;;19.40;99.90;;;;;;5052657;28;20233;-60
2021/08/02 11:53:19;;;;;;;3.60;2.17;;;19.80;99.90;;;;;;5052980;28;20208;-59
2021/08/02 11:55:52;;;;;;;5.55;2.60;;;20.20;99.90;;;;;;5052817;28;20212;-60
2021/08/02 11:58:21;;;;;;;4.75;1.90;;;20.50;99.90;;;;;;5052785;28;20205;-60
2021/08/02 12:00:47;;;;;;;5.07;1.65;;;20.60;99.90;;;;;;5052583;28;20225;-59
2021/08/02 12:03:19;;;;;;;1.95;1.33;;;20.80;99.90;;;;;;5052477;28;20205;-60
2021/08/02 12:05:47;;;;;;;1.63;1.30;;;20.90;99.90;;;;;;5052630;28;20214;-60
2021/08/02 12:08:17;;;;;;;2.10;1.40;;;21.00;99.90;;;;;;5052595;28;20232;-60
2021/08/02 12:10:54;;;;;;;2.42;1.60;;;21.10;99.90;;;;;;5052571;28;20234;-59
2021/08/02 12:13:22;;;;;;;4.28;1.55;;;21.20;99.90;;;;;;5052862;28;20216;-58
2021/08/02 12:15:53;;;;;;;3.00;1.85;;;21.40;99.90;;;;;;5052610;28;20210;-58
2021/08/02 12:18:23;;;;;;;1.40;1.10;;;21.60;99.90;;;;;;5052407;28;20255;-59
2021/08/02 12:20:50;;;;;;;1.50;1.40;;;21.90;99.90;;;;;;5052886;28;20221;-58
2021/08/02 12:23:24;;;;;;;1.98;1.48;;;22.30;99.90;;;;;;5052649;28;20209;-58
2021/08/02 12:25:50;;;;;;;2.67;1.30;;;22.80;99.90;;;;;;5052402;28;20201;-59
2021/08/02 12:28:17;;;;;;;1.45;1.20;;;23.30;99.90;;;;;;5052209;28;20484;-58
2021/08/02 12:30:57;;;;;;;1.90;1.38;;;23.60;99.90;;;;;;5052344;28;20225;-59
2021/08/02 12:33:24;;;;;;;1.70;1.08;;;23.70;99.90;;;;;;5051245;28;20201;-59
2021/08/02 12:35:51;;;;;;;2.47;1.35;;;23.60;99.90;;;;;;5052094;28;20209;-59
2021/08/02 12:38:18;;;;;;;1.52;1.10;;;23.40;99.90;;;;;;5051676;28;20680;-59
2021/08/02 12:40:45;;;;;;;2.38;1.40;;;23.20;99.90;;;;;;5051619;28;20233;-59
2021/08/02 12:43:12;;;;;;;3.10;1.38;;;23.20;99.90;;;;;;5051638;28;20217;-59
2021/08/02 12:45:39;;;;;;;3.47;1.20;;;23.10;99.90;;;;;;5051349;28;20701;-59
2021/08/02 12:48:07;;;;;;;2.78;1.15;;;23.20;99.90;;;;;;5051141;28;20685;-58
2021/08/02 12:50:34;;;;;;;3.22;1.50;;;23.30;99.90;;;;;;5051803;28;20264;-60
2021/08/02 12:53:02;;;;;;;1.70;1.00;;;23.30;99.90;;;;;;5051717;28;20210;-59
2021/08/02 12:55:29;;;;;;;1.80;1.25;;;23.30;99.90;;;;;;5051214;28;20205;-59
2021/08/02 12:57:55;;;;;;;5.93;1.52;;;23.30;99.90;;;;;;5051217;28;20630;-59